sensor_id;sensor_type;location;lat;lon;timestamp;P1;durP1;ratioP1;P2;durP2;ratioP2
47772;SDS011;33534;51.028;13.716;2023-04-24T00:00:10;8.85;;;5.68;;
47772;SDS011;33534;51.028;13.716;2023-04-24T00:02:39;7.18;;;5.90;;
47772;SDS011;33534;51.028;13.716;2023-04-24T00:05:06;7.75;;;6.30;;
47772;SDS011;33534;51.028;13.716;2023-04-24T00:07:32;7.68;;;5.90;;
47772;SDS011;33534;51.028;13.716;2023-04-24T00:09:58;9.27;;;6.43;;
47772;SDS011;33534;51.028;13.716;2023-04-24T00:12:25;6.90;;;5.78;;
47772;SDS011;33534;51.028;13.716;2023-04-24T00:14:51;6.80;;;6.00;;
47772;SDS011;33534;51.028;13.716;2023-04-24T00:17:17;8.95;;;6.43;;
47772;SDS011;33534;51.028;13.716;2023-04-24T00:19:46;9.43;;;7.05;;
47772;SDS011;33534;51.028;13.716;2023-04-24T00:22:12;9.48;;;7.72;;
47772;SDS011;33534;51.028;13.716;2023-04-24T00:24:38;6.53;;;5.40;;
47772;SDS011;33534;51.028;13.716;2023-04-24T00:27:04;8.30;;;5.80;;
47772;SDS011;33534;51.028;13.716;2023-04-24T00:29:30;8.10;;;5.75;;
47772;SDS011;33534;51.028;13.716;2023-04-24T00:31:56;8.35;;;5.90;;
47772;SDS011;33534;51.028;13.716;2023-04-24T00:34:22;5.85;;;5.22;;
47772;SDS011;33534;51.028;13.716;2023-04-24T00:36:48;9.90;;;5.95;;
47772;SDS011;33534;51.028;13.716;2023-04-24T00:39:18;8.02;;;5.55;;
47772;SDS011;33534;51.028;13.716;2023-04-24T00:41:44;8.95;;;5.90;;
47772;SDS011;33534;51.028;13.716;2023-04-24T00:44:11;6.22;;;5.03;;
47772;SDS011;33534;51.028;13.716;2023-04-24T00:46:37;7.90;;;5.72;;
47772;SDS011;33534;51.028;13.716;2023-04-24T00:49:04;6.63;;;5.13;;
47772;SDS011;33534;51.028;13.716;2023-04-24T00:51:31;9.85;;;6.05;;
47772;SDS011;33534;51.028;13.716;2023-04-24T00:53:57;8.85;;;5.80;;
47772;SDS011;33534;51.028;13.716;2023-04-24T00:56:23;8.07;;;5.43;;
47772;SDS011;33534;51.028;13.716;2023-04-24T00:58:49;6.03;;;5.43;;
47772;SDS011;33534;51.028;13.716;2023-04-24T01:01:16;7.97;;;5.90;;
47772;SDS011;33534;51.028;13.716;2023-04-24T01:03:43;6.88;;;5.88;;
47772;SDS011;33534;51.028;13.716;2023-04-24T01:06:09;9.02;;;6.07;;
47772;SDS011;33534;51.028;13.716;2023-04-24T01:08:36;6.60;;;5.82;;
47772;SDS011;33534;51.028;13.716;2023-04-24T01:11:03;7.65;;;6.00;;
47772;SDS011;33534;51.028;13.716;2023-04-24T01:13:30;7.15;;;5.53;;
47772;SDS011;33534;51.028;13.716;2023-04-24T01:15:56;7.20;;;5.25;;
47772;SDS011;33534;51.028;13.716;2023-04-24T01:18:23;7.97;;;5.72;;
47772;SDS011;33534;51.028;13.716;2023-04-24T01:20:49;8.05;;;6.03;;
47772;SDS011;33534;51.028;13.716;2023-04-24T01:23:16;7.47;;;6.03;;
47772;SDS011;33534;51.028;13.716;2023-04-24T01:25:42;8.98;;;5.85;;
47772;SDS011;33534;51.028;13.716;2023-04-24T01:28:09;6.45;;;5.85;;
47772;SDS011;33534;51.028;13.716;2023-04-24T01:30:35;6.55;;;5.93;;
47772;SDS011;33534;51.028;13.716;2023-04-24T01:33:02;7.00;;;5.22;;
47772;SDS011;33534;51.028;13.716;2023-04-24T01:35:28;7.35;;;5.57;;
47772;SDS011;33534;51.028;13.716;2023-04-24T01:37:54;9.43;;;6.13;;
47772;SDS011;33534;51.028;13.716;2023-04-24T01:40:20;7.30;;;5.18;;
47772;SDS011;33534;51.028;13.716;2023-04-24T01:42:46;7.45;;;5.35;;
47772;SDS011;33534;51.028;13.716;2023-04-24T01:45:13;7.43;;;5.13;;
47772;SDS011;33534;51.028;13.716;2023-04-24T01:47:39;8.82;;;6.25;;
47772;SDS011;33534;51.028;13.716;2023-04-24T01:50:05;7.78;;;5.97;;
47772;SDS011;33534;51.028;13.716;2023-04-24T01:52:31;7.28;;;5.18;;
47772;SDS011;33534;51.028;13.716;2023-04-24T01:55:01;8.70;;;6.07;;
47772;SDS011;33534;51.028;13.716;2023-04-24T01:57:27;8.38;;;5.68;;
47772;SDS011;33534;51.028;13.716;2023-04-24T01:59:55;8.93;;;6.43;;
47772;SDS011;33534;51.028;13.716;2023-04-24T02:02:21;9.40;;;5.85;;
47772;SDS011;33534;51.028;13.716;2023-04-24T02:04:49;9.23;;;5.53;;
47772;SDS011;33534;51.028;13.716;2023-04-24T02:07:15;8.63;;;5.30;;
47772;SDS011;33534;51.028;13.716;2023-04-24T02:09:41;8.80;;;5.68;;
47772;SDS011;33534;51.028;13.716;2023-04-24T02:12:07;11.10;;;5.57;;
47772;SDS011;33534;51.028;13.716;2023-04-24T02:14:33;6.78;;;5.10;;
47772;SDS011;33534;51.028;13.716;2023-04-24T02:16:59;8.00;;;6.15;;
47772;SDS011;33534;51.028;13.716;2023-04-24T02:19:25;6.93;;;5.57;;
47772;SDS011;33534;51.028;13.716;2023-04-24T02:21:52;8.15;;;5.13;;
47772;SDS011;33534;51.028;13.716;2023-04-24T02:24:18;5.70;;;4.80;;
47772;SDS011;33534;51.028;13.716;2023-04-24T02:26:44;6.63;;;4.97;;
47772;SDS011;33534;51.028;13.716;2023-04-24T02:29:10;6.25;;;5.13;;
47772;SDS011;33534;51.028;13.716;2023-04-24T02:31:36;5.72;;;4.85;;
47772;SDS011;33534;51.028;13.716;2023-04-24T02:34:02;8.88;;;5.35;;
47772;SDS011;33534;51.028;13.716;2023-04-24T02:36:28;8.10;;;5.07;;
47772;SDS011;33534;51.028;13.716;2023-04-24T02:38:55;6.72;;;5.32;;
47772;SDS011;33534;51.028;13.716;2023-04-24T02:41:21;7.10;;;5.10;;
47772;SDS011;33534;51.028;13.716;2023-04-24T02:43:47;5.22;;;4.32;;
47772;SDS011;33534;51.028;13.716;2023-04-24T02:46:13;6.45;;;5.13;;
47772;SDS011;33534;51.028;13.716;2023-04-24T02:48:39;5.95;;;4.80;;
47772;SDS011;33534;51.028;13.716;2023-04-24T02:51:05;5.50;;;4.72;;
47772;SDS011;33534;51.028;13.716;2023-04-24T02:53:31;6.35;;;4.47;;
47772;SDS011;33534;51.028;13.716;2023-04-24T02:55:57;5.30;;;4.72;;
47772;SDS011;33534;51.028;13.716;2023-04-24T02:58:24;7.43;;;5.00;;
47772;SDS011;33534;51.028;13.716;2023-04-24T03:00:53;6.53;;;4.70;;
47772;SDS011;33534;51.028;13.716;2023-04-24T03:03:19;6.35;;;4.85;;
47772;SDS011;33534;51.028;13.716;2023-04-24T03:05:45;5.63;;;4.93;;
47772;SDS011;33534;51.028;13.716;2023-04-24T03:08:12;5.32;;;4.03;;
47772;SDS011;33534;51.028;13.716;2023-04-24T03:10:39;6.20;;;3.92;;
47772;SDS011;33534;51.028;13.716;2023-04-24T03:13:05;4.30;;;3.90;;
47772;SDS011;33534;51.028;13.716;2023-04-24T03:15:31;5.57;;;4.40;;
47772;SDS011;33534;51.028;13.716;2023-04-24T03:17:57;5.30;;;4.38;;
47772;SDS011;33534;51.028;13.716;2023-04-24T03:20:23;5.72;;;3.75;;
47772;SDS011;33534;51.028;13.716;2023-04-24T03:22:49;5.95;;;3.78;;
47772;SDS011;33534;51.028;13.716;2023-04-24T03:25:15;4.50;;;3.58;;
47772;SDS011;33534;51.028;13.716;2023-04-24T03:27:41;3.58;;;3.20;;
47772;SDS011;33534;51.028;13.716;2023-04-24T03:30:07;5.57;;;3.60;;
47772;SDS011;33534;51.028;13.716;2023-04-24T03:32:33;5.13;;;4.25;;
47772;SDS011;33534;51.028;13.716;2023-04-24T03:34:59;4.43;;;3.58;;
47772;SDS011;33534;51.028;13.716;2023-04-24T03:37:26;6.38;;;3.72;;
47772;SDS011;33534;51.028;13.716;2023-04-24T03:39:52;6.07;;;4.15;;
47772;SDS011;33534;51.028;13.716;2023-04-24T03:42:18;4.60;;;3.53;;
47772;SDS011;33534;51.028;13.716;2023-04-24T03:44:44;3.95;;;3.40;;
47772;SDS011;33534;51.028;13.716;2023-04-24T03:47:10;4.70;;;3.30;;
47772;SDS011;33534;51.028;13.716;2023-04-24T03:49:36;4.95;;;2.85;;
47772;SDS011;33534;51.028;13.716;2023-04-24T03:52:02;2.78;;;2.20;;
47772;SDS011;33534;51.028;13.716;2023-04-24T03:54:28;3.70;;;2.08;;
47772;SDS011;33534;51.028;13.716;2023-04-24T03:56:54;3.72;;;2.45;;
47772;SDS011;33534;51.028;13.716;2023-04-24T03:59:20;5.65;;;2.47;;
47772;SDS011;33534;51.028;13.716;2023-04-24T04:01:46;4.13;;;2.70;;
47772;SDS011;33534;51.028;13.716;2023-04-24T04:04:12;4.60;;;2.30;;
47772;SDS011;33534;51.028;13.716;2023-04-24T04:06:38;2.63;;;2.08;;
47772;SDS011;33534;51.028;13.716;2023-04-24T04:09:04;3.38;;;1.80;;
47772;SDS011;33534;51.028;13.716;2023-04-24T04:11:30;2.60;;;1.80;;
47772;SDS011;33534;51.028;13.716;2023-04-24T04:13:56;2.80;;;2.10;;
47772;SDS011;33534;51.028;13.716;2023-04-24T04:16:22;1.92;;;1.63;;
47772;SDS011;33534;51.028;13.716;2023-04-24T04:18:49;5.30;;;1.50;;
47772;SDS011;33534;51.028;13.716;2023-04-24T04:21:15;5.28;;;1.90;;
47772;SDS011;33534;51.028;13.716;2023-04-24T04:23:41;3.05;;;1.42;;
47772;SDS011;33534;51.028;13.716;2023-04-24T04:26:07;1.90;;;1.17;;
47772;SDS011;33534;51.028;13.716;2023-04-24T04:28:33;6.35;;;1.25;;
47772;SDS011;33534;51.028;13.716;2023-04-24T04:30:59;2.63;;;1.10;;
47772;SDS011;33534;51.028;13.716;2023-04-24T04:33:26;4.28;;;1.13;;
47772;SDS011;33534;51.028;13.716;2023-04-24T04:35:52;1.63;;;1.17;;
47772;SDS011;33534;51.028;13.716;2023-04-24T04:38:18;3.53;;;1.13;;
47772;SDS011;33534;51.028;13.716;2023-04-24T04:40:45;2.75;;;1.65;;
47772;SDS011;33534;51.028;13.716;2023-04-24T04:43:11;1.85;;;0.90;;
47772;SDS011;33534;51.028;13.716;2023-04-24T04:45:41;1.42;;;1.10;;
47772;SDS011;33534;51.028;13.716;2023-04-24T04:48:08;1.40;;;0.90;;
47772;SDS011;33534;51.028;13.716;2023-04-24T04:50:34;1.55;;;1.00;;
47772;SDS011;33534;51.028;13.716;2023-04-24T04:53:00;1.20;;;0.77;;
47772;SDS011;33534;51.028;13.716;2023-04-24T04:55:26;1.90;;;1.13;;
47772;SDS011;33534;51.028;13.716;2023-04-24T04:57:52;3.47;;;1.40;;
47772;SDS011;33534;51.028;13.716;2023-04-24T05:00:20;3.25;;;1.00;;
47772;SDS011;33534;51.028;13.716;2023-04-24T05:02:46;7.15;;;1.60;;
47772;SDS011;33534;51.028;13.716;2023-04-24T05:05:12;2.08;;;1.10;;
47772;SDS011;33534;51.028;13.716;2023-04-24T05:07:38;3.40;;;1.23;;
47772;SDS011;33534;51.028;13.716;2023-04-24T05:10:04;5.68;;;1.55;;
47772;SDS011;33534;51.028;13.716;2023-04-24T05:12:30;5.45;;;1.63;;
47772;SDS011;33534;51.028;13.716;2023-04-24T05:14:56;4.78;;;1.27;;
47772;SDS011;33534;51.028;13.716;2023-04-24T05:17:22;8.65;;;1.65;;
47772;SDS011;33534;51.028;13.716;2023-04-24T05:19:48;2.78;;;1.27;;
47772;SDS011;33534;51.028;13.716;2023-04-24T05:22:14;2.47;;;1.05;;
47772;SDS011;33534;51.028;13.716;2023-04-24T05:24:42;2.22;;;0.93;;
47772;SDS011;33534;51.028;13.716;2023-04-24T05:27:08;1.52;;;0.75;;
47772;SDS011;33534;51.028;13.716;2023-04-24T05:29:34;1.48;;;0.90;;
47772;SDS011;33534;51.028;13.716;2023-04-24T05:32:01;2.80;;;1.00;;
47772;SDS011;33534;51.028;13.716;2023-04-24T05:34:27;1.83;;;1.05;;
47772;SDS011;33534;51.028;13.716;2023-04-24T05:36:53;4.13;;;0.77;;
47772;SDS011;33534;51.028;13.716;2023-04-24T05:39:20;2.60;;;0.80;;
47772;SDS011;33534;51.028;13.716;2023-04-24T05:41:46;1.58;;;0.65;;
47772;SDS011;33534;51.028;13.716;2023-04-24T05:44:12;3.58;;;1.05;;
47772;SDS011;33534;51.028;13.716;2023-04-24T05:46:38;1.70;;;0.85;;
47772;SDS011;33534;51.028;13.716;2023-04-24T05:49:04;1.48;;;0.88;;
47772;SDS011;33534;51.028;13.716;2023-04-24T05:51:30;2.17;;;1.33;;
47772;SDS011;33534;51.028;13.716;2023-04-24T05:53:56;1.20;;;0.75;;
47772;SDS011;33534;51.028;13.716;2023-04-24T05:56:22;1.45;;;0.68;;
47772;SDS011;33534;51.028;13.716;2023-04-24T05:58:49;1.65;;;0.88;;
47772;SDS011;33534;51.028;13.716;2023-04-24T06:01:15;2.53;;;1.13;;
47772;SDS011;33534;51.028;13.716;2023-04-24T06:03:41;2.15;;;0.80;;
47772;SDS011;33534;51.028;13.716;2023-04-24T06:06:07;1.98;;;0.90;;
47772;SDS011;33534;51.028;13.716;2023-04-24T06:08:34;3.60;;;1.00;;
47772;SDS011;33534;51.028;13.716;2023-04-24T06:11:00;1.88;;;1.00;;
47772;SDS011;33534;51.028;13.716;2023-04-24T06:13:26;2.45;;;1.02;;
47772;SDS011;33534;51.028;13.716;2023-04-24T06:15:52;3.35;;;1.40;;
47772;SDS011;33534;51.028;13.716;2023-04-24T06:18:19;1.92;;;1.00;;
47772;SDS011;33534;51.028;13.716;2023-04-24T06:20:45;1.75;;;0.93;;
47772;SDS011;33534;51.028;13.716;2023-04-24T06:23:11;1.45;;;0.60;;
47772;SDS011;33534;51.028;13.716;2023-04-24T06:25:37;2.15;;;1.08;;
47772;SDS011;33534;51.028;13.716;2023-04-24T06:28:03;2.03;;;0.80;;
47772;SDS011;33534;51.028;13.716;2023-04-24T06:30:30;2.25;;;0.90;;
47772;SDS011;33534;51.028;13.716;2023-04-24T06:32:56;2.60;;;0.80;;
47772;SDS011;33534;51.028;13.716;2023-04-24T06:35:22;4.32;;;0.98;;
47772;SDS011;33534;51.028;13.716;2023-04-24T06:37:48;2.63;;;0.90;;
47772;SDS011;33534;51.028;13.716;2023-04-24T06:40:14;1.23;;;0.73;;
47772;SDS011;33534;51.028;13.716;2023-04-24T06:42:40;3.97;;;1.02;;
47772;SDS011;33534;51.028;13.716;2023-04-24T06:45:07;2.38;;;0.82;;
47772;SDS011;33534;51.028;13.716;2023-04-24T06:47:33;3.08;;;0.70;;
47772;SDS011;33534;51.028;13.716;2023-04-24T06:49:59;1.75;;;0.80;;
47772;SDS011;33534;51.028;13.716;2023-04-24T06:52:25;2.95;;;0.70;;
47772;SDS011;33534;51.028;13.716;2023-04-24T06:54:51;2.85;;;0.70;;
47772;SDS011;33534;51.028;13.716;2023-04-24T06:57:17;3.10;;;0.88;;
47772;SDS011;33534;51.028;13.716;2023-04-24T06:59:43;1.13;;;0.85;;
47772;SDS011;33534;51.028;13.716;2023-04-24T07:02:09;10.20;;;5.05;;
47772;SDS011;33534;51.028;13.716;2023-04-24T07:04:35;2.25;;;0.88;;
47772;SDS011;33534;51.028;13.716;2023-04-24T07:07:02;4.63;;;1.10;;
47772;SDS011;33534;51.028;13.716;2023-04-24T07:09:28;6.55;;;1.63;;
47772;SDS011;33534;51.028;13.716;2023-04-24T07:11:54;3.10;;;1.00;;
47772;SDS011;33534;51.028;13.716;2023-04-24T07:14:21;1.10;;;0.80;;
47772;SDS011;33534;51.028;13.716;2023-04-24T07:16:47;4.28;;;1.70;;
47772;SDS011;33534;51.028;13.716;2023-04-24T07:19:13;3.75;;;0.85;;
47772;SDS011;33534;51.028;13.716;2023-04-24T07:21:39;3.10;;;1.48;;
47772;SDS011;33534;51.028;13.716;2023-04-24T07:24:05;0.70;;;0.60;;
47772;SDS011;33534;51.028;13.716;2023-04-24T07:26:35;4.13;;;0.95;;
47772;SDS011;33534;51.028;13.716;2023-04-24T07:29:01;4.97;;;1.05;;
47772;SDS011;33534;51.028;13.716;2023-04-24T07:31:27;3.25;;;0.82;;
47772;SDS011;33534;51.028;13.716;2023-04-24T07:33:54;1.75;;;1.00;;
47772;SDS011;33534;51.028;13.716;2023-04-24T07:36:22;0.93;;;0.47;;
47772;SDS011;33534;51.028;13.716;2023-04-24T07:38:49;4.15;;;0.50;;
47772;SDS011;33534;51.028;13.716;2023-04-24T07:41:15;1.45;;;0.73;;
47772;SDS011;33534;51.028;13.716;2023-04-24T07:43:41;2.67;;;0.40;;
47772;SDS011;33534;51.028;13.716;2023-04-24T07:46:10;2.20;;;0.85;;
47772;SDS011;33534;51.028;13.716;2023-04-24T07:48:36;2.75;;;1.35;;
47772;SDS011;33534;51.028;13.716;2023-04-24T07:51:02;2.17;;;1.30;;
47772;SDS011;33534;51.028;13.716;2023-04-24T07:53:28;3.22;;;0.88;;
47772;SDS011;33534;51.028;13.716;2023-04-24T07:55:55;1.60;;;0.60;;
47772;SDS011;33534;51.028;13.716;2023-04-24T07:58:21;2.03;;;0.80;;
47772;SDS011;33534;51.028;13.716;2023-04-24T08:00:47;2.38;;;0.68;;
47772;SDS011;33534;51.028;13.716;2023-04-24T08:03:13;1.70;;;0.77;;
47772;SDS011;33534;51.028;13.716;2023-04-24T08:05:40;4.95;;;0.65;;
47772;SDS011;33534;51.028;13.716;2023-04-24T08:08:07;1.73;;;0.60;;
47772;SDS011;33534;51.028;13.716;2023-04-24T08:10:33;1.35;;;0.47;;
47772;SDS011;33534;51.028;13.716;2023-04-24T08:12:59;2.50;;;0.70;;
47772;SDS011;33534;51.028;13.716;2023-04-24T08:15:27;2.13;;;0.80;;
47772;SDS011;33534;51.028;13.716;2023-04-24T08:17:53;3.47;;;0.88;;
47772;SDS011;33534;51.028;13.716;2023-04-24T08:20:19;2.63;;;1.00;;
47772;SDS011;33534;51.028;13.716;2023-04-24T08:22:45;1.45;;;0.50;;
47772;SDS011;33534;51.028;13.716;2023-04-24T08:25:12;2.53;;;0.70;;
47772;SDS011;33534;51.028;13.716;2023-04-24T08:27:38;1.15;;;0.60;;
47772;SDS011;33534;51.028;13.716;2023-04-24T08:30:04;2.47;;;0.80;;
47772;SDS011;33534;51.028;13.716;2023-04-24T08:32:31;1.77;;;0.50;;
47772;SDS011;33534;51.028;13.716;2023-04-24T08:34:57;1.48;;;0.60;;
47772;SDS011;33534;51.028;13.716;2023-04-24T08:37:23;5.57;;;0.85;;
47772;SDS011;33534;51.028;13.716;2023-04-24T08:39:50;2.15;;;0.98;;
47772;SDS011;33534;51.028;13.716;2023-04-24T08:42:19;1.05;;;0.57;;
47772;SDS011;33534;51.028;13.716;2023-04-24T08:44:45;5.38;;;1.00;;
47772;SDS011;33534;51.028;13.716;2023-04-24T08:47:12;4.72;;;1.00;;
47772;SDS011;33534;51.028;13.716;2023-04-24T08:49:38;2.05;;;0.70;;
47772;SDS011;33534;51.028;13.716;2023-04-24T08:52:05;1.70;;;0.65;;
47772;SDS011;33534;51.028;13.716;2023-04-24T08:54:31;1.48;;;0.40;;
47772;SDS011;33534;51.028;13.716;2023-04-24T08:56:58;1.13;;;0.80;;
47772;SDS011;33534;51.028;13.716;2023-04-24T08:59:26;3.40;;;0.68;;
47772;SDS011;33534;51.028;13.716;2023-04-24T09:01:52;1.58;;;0.40;;
47772;SDS011;33534;51.028;13.716;2023-04-24T09:04:18;8.32;;;1.27;;
47772;SDS011;33534;51.028;13.716;2023-04-24T09:06:47;2.95;;;0.95;;
47772;SDS011;33534;51.028;13.716;2023-04-24T09:09:13;6.72;;;0.98;;
47772;SDS011;33534;51.028;13.716;2023-04-24T09:11:41;2.50;;;0.77;;
47772;SDS011;33534;51.028;13.716;2023-04-24T09:14:07;1.30;;;0.77;;
47772;SDS011;33534;51.028;13.716;2023-04-24T09:16:34;1.02;;;0.60;;
47772;SDS011;33534;51.028;13.716;2023-04-24T09:19:00;2.58;;;0.28;;
47772;SDS011;33534;51.028;13.716;2023-04-24T09:21:30;2.55;;;0.60;;
47772;SDS011;33534;51.028;13.716;2023-04-24T09:23:58;2.00;;;0.60;;
47772;SDS011;33534;51.028;13.716;2023-04-24T09:26:25;0.70;;;0.50;;
47772;SDS011;33534;51.028;13.716;2023-04-24T09:28:51;3.88;;;0.73;;
47772;SDS011;33534;51.028;13.716;2023-04-24T09:31:19;2.85;;;0.52;;
47772;SDS011;33534;51.028;13.716;2023-04-24T09:36:34;1.30;;;0.52;;
47772;SDS011;33534;51.028;13.716;2023-04-24T09:39:03;1.30;;;0.65;;
47772;SDS011;33534;51.028;13.716;2023-04-24T09:41:31;3.33;;;0.65;;
47772;SDS011;33534;51.028;13.716;2023-04-24T09:43:58;3.70;;;0.70;;
47772;SDS011;33534;51.028;13.716;2023-04-24T09:46:30;2.50;;;0.50;;
47772;SDS011;33534;51.028;13.716;2023-04-24T09:48:57;3.75;;;0.90;;
47772;SDS011;33534;51.028;13.716;2023-04-24T09:51:41;3.28;;;0.80;;
47772;SDS011;33534;51.028;13.716;2023-04-24T09:54:17;4.90;;;0.85;;
47772;SDS011;33534;51.028;13.716;2023-04-24T09:56:46;3.88;;;0.70;;
47772;SDS011;33534;51.028;13.716;2023-04-24T09:59:13;5.22;;;0.88;;
47772;SDS011;33534;51.028;13.716;2023-04-24T10:01:39;2.28;;;0.77;;
47772;SDS011;33534;51.028;13.716;2023-04-24T10:04:14;7.57;;;0.63;;
47772;SDS011;33534;51.028;13.716;2023-04-24T10:06:42;1.52;;;0.50;;
47772;SDS011;33534;51.028;13.716;2023-04-24T10:09:08;1.08;;;0.60;;
47772;SDS011;33534;51.028;13.716;2023-04-24T10:11:36;2.10;;;0.65;;
47772;SDS011;33534;51.028;13.716;2023-04-24T10:14:02;4.00;;;0.77;;
47772;SDS011;33534;51.028;13.716;2023-04-24T10:16:29;1.42;;;0.55;;
47772;SDS011;33534;51.028;13.716;2023-04-24T10:18:55;1.52;;;0.57;;
47772;SDS011;33534;51.028;13.716;2023-04-24T10:21:23;3.40;;;0.88;;
47772;SDS011;33534;51.028;13.716;2023-04-24T10:23:49;1.92;;;0.50;;
47772;SDS011;33534;51.028;13.716;2023-04-24T10:26:16;1.50;;;0.40;;
47772;SDS011;33534;51.028;13.716;2023-04-24T10:28:46;1.45;;;0.40;;
47772;SDS011;33534;51.028;13.716;2023-04-24T10:31:12;1.95;;;0.47;;
47772;SDS011;33534;51.028;13.716;2023-04-24T10:33:40;6.28;;;1.05;;
47772;SDS011;33534;51.028;13.716;2023-04-24T10:36:07;1.08;;;0.73;;
47772;SDS011;33534;51.028;13.716;2023-04-24T10:38:33;1.65;;;0.52;;
47772;SDS011;33534;51.028;13.716;2023-04-24T10:41:12;2.72;;;0.55;;
47772;SDS011;33534;51.028;13.716;2023-04-24T10:43:44;1.60;;;0.40;;
47772;SDS011;33534;51.028;13.716;2023-04-24T10:46:10;1.83;;;0.50;;
47772;SDS011;33534;51.028;13.716;2023-04-24T10:48:41;1.08;;;0.50;;
47772;SDS011;33534;51.028;13.716;2023-04-24T10:51:10;1.48;;;0.60;;
47772;SDS011;33534;51.028;13.716;2023-04-24T10:53:38;4.03;;;0.88;;
47772;SDS011;33534;51.028;13.716;2023-04-24T10:56:07;2.72;;;0.80;;
47772;SDS011;33534;51.028;13.716;2023-04-24T10:58:42;5.95;;;0.90;;
47772;SDS011;33534;51.028;13.716;2023-04-24T11:03:35;1.92;;;0.65;;
47772;SDS011;33534;51.028;13.716;2023-04-24T11:06:05;0.82;;;0.70;;
47772;SDS011;33534;51.028;13.716;2023-04-24T11:08:32;1.40;;;0.57;;
47772;SDS011;33534;51.028;13.716;2023-04-24T11:11:03;2.75;;;0.75;;
47772;SDS011;33534;51.028;13.716;2023-04-24T11:18:43;1.90;;;0.60;;
47772;SDS011;33534;51.028;13.716;2023-04-24T11:21:18;2.80;;;0.70;;
47772;SDS011;33534;51.028;13.716;2023-04-24T11:23:45;1.00;;;0.47;;
47772;SDS011;33534;51.028;13.716;2023-04-24T11:26:12;2.78;;;1.05;;
47772;SDS011;33534;51.028;13.716;2023-04-24T11:28:48;1.27;;;0.60;;
47772;SDS011;33534;51.028;13.716;2023-04-24T11:34:10;0.50;;;0.40;;
47772;SDS011;33534;51.028;13.716;2023-04-24T11:36:37;3.55;;;0.80;;
47772;SDS011;33534;51.028;13.716;2023-04-24T11:39:03;2.45;;;0.75;;
47772;SDS011;33534;51.028;13.716;2023-04-24T11:41:29;1.15;;;0.40;;
47772;SDS011;33534;51.028;13.716;2023-04-24T11:43:55;1.35;;;0.40;;
47772;SDS011;33534;51.028;13.716;2023-04-24T11:46:22;2.72;;;0.60;;
47772;SDS011;33534;51.028;13.716;2023-04-24T11:48:48;2.45;;;0.70;;
47772;SDS011;33534;51.028;13.716;2023-04-24T11:51:14;1.48;;;0.50;;
47772;SDS011;33534;51.028;13.716;2023-04-24T11:53:40;2.63;;;0.60;;
47772;SDS011;33534;51.028;13.716;2023-04-24T11:56:08;1.80;;;0.55;;
47772;SDS011;33534;51.028;13.716;2023-04-24T11:58:44;2.38;;;0.57;;
47772;SDS011;33534;51.028;13.716;2023-04-24T12:01:10;3.40;;;0.60;;
47772;SDS011;33534;51.028;13.716;2023-04-24T12:03:36;0.65;;;0.40;;
47772;SDS011;33534;51.028;13.716;2023-04-24T12:06:06;1.80;;;0.43;;
47772;SDS011;33534;51.028;13.716;2023-04-24T12:08:32;1.05;;;0.40;;
47772;SDS011;33534;51.028;13.716;2023-04-24T12:11:02;4.60;;;0.80;;
47772;SDS011;33534;51.028;13.716;2023-04-24T12:13:28;1.33;;;0.52;;
47772;SDS011;33534;51.028;13.716;2023-04-24T12:15:56;1.02;;;0.60;;
47772;SDS011;33534;51.028;13.716;2023-04-24T12:18:22;0.80;;;0.40;;
47772;SDS011;33534;51.028;13.716;2023-04-24T12:20:48;1.92;;;0.40;;
47772;SDS011;33534;51.028;13.716;2023-04-24T12:23:14;4.00;;;0.60;;
47772;SDS011;33534;51.028;13.716;2023-04-24T12:25:40;1.08;;;0.47;;
47772;SDS011;33534;51.028;13.716;2023-04-24T12:28:10;0.85;;;0.75;;
47772;SDS011;33534;51.028;13.716;2023-04-24T12:30:43;4.10;;;0.63;;
47772;SDS011;33534;51.028;13.716;2023-04-24T12:33:10;0.93;;;0.50;;
47772;SDS011;33534;51.028;13.716;2023-04-24T12:35:36;2.20;;;0.60;;
47772;SDS011;33534;51.028;13.716;2023-04-24T12:38:10;2.03;;;0.70;;
47772;SDS011;33534;51.028;13.716;2023-04-24T12:40:37;3.95;;;0.60;;
47772;SDS011;33534;51.028;13.716;2023-04-24T12:43:19;3.10;;;1.00;;
47772;SDS011;33534;51.028;13.716;2023-04-24T12:45:47;1.13;;;0.88;;
47772;SDS011;33534;51.028;13.716;2023-04-24T12:48:13;1.73;;;0.82;;
47772;SDS011;33534;51.028;13.716;2023-04-24T12:50:39;2.38;;;0.70;;
47772;SDS011;33534;51.028;13.716;2023-04-24T12:53:06;3.17;;;0.80;;
47772;SDS011;33534;51.028;13.716;2023-04-24T12:55:32;2.90;;;0.88;;
47772;SDS011;33534;51.028;13.716;2023-04-24T12:57:58;1.15;;;0.93;;
47772;SDS011;33534;51.028;13.716;2023-04-24T13:00:24;2.28;;;0.90;;
47772;SDS011;33534;51.028;13.716;2023-04-24T13:02:50;1.58;;;0.60;;
47772;SDS011;33534;51.028;13.716;2023-04-24T13:05:16;6.78;;;0.77;;
47772;SDS011;33534;51.028;13.716;2023-04-24T13:07:42;2.08;;;0.80;;
47772;SDS011;33534;51.028;13.716;2023-04-24T13:10:09;1.33;;;0.50;;
47772;SDS011;33534;51.028;13.716;2023-04-24T13:12:35;3.97;;;0.70;;
47772;SDS011;33534;51.028;13.716;2023-04-24T13:15:01;1.80;;;0.90;;
47772;SDS011;33534;51.028;13.716;2023-04-24T13:17:28;3.50;;;0.93;;
47772;SDS011;33534;51.028;13.716;2023-04-24T13:19:54;3.33;;;1.17;;
47772;SDS011;33534;51.028;13.716;2023-04-24T13:22:20;4.13;;;0.95;;
47772;SDS011;33534;51.028;13.716;2023-04-24T13:24:47;2.03;;;0.80;;
47772;SDS011;33534;51.028;13.716;2023-04-24T13:27:16;2.85;;;0.80;;
47772;SDS011;33534;51.028;13.716;2023-04-24T13:29:42;2.28;;;0.88;;
47772;SDS011;33534;51.028;13.716;2023-04-24T13:32:08;0.82;;;0.63;;
47772;SDS011;33534;51.028;13.716;2023-04-24T13:34:35;1.08;;;0.95;;
47772;SDS011;33534;51.028;13.716;2023-04-24T13:37:01;5.32;;;0.90;;
47772;SDS011;33534;51.028;13.716;2023-04-24T13:39:28;3.10;;;0.98;;
47772;SDS011;33534;51.028;13.716;2023-04-24T13:41:54;1.08;;;0.60;;
47772;SDS011;33534;51.028;13.716;2023-04-24T13:44:21;2.60;;;0.88;;
47772;SDS011;33534;51.028;13.716;2023-04-24T13:46:48;6.78;;;0.70;;
47772;SDS011;33534;51.028;13.716;2023-04-24T13:49:15;2.90;;;0.90;;
47772;SDS011;33534;51.028;13.716;2023-04-24T13:51:41;1.00;;;0.80;;
47772;SDS011;33534;51.028;13.716;2023-04-24T13:54:07;2.03;;;0.60;;
47772;SDS011;33534;51.028;13.716;2023-04-24T13:56:33;4.15;;;0.88;;
47772;SDS011;33534;51.028;13.716;2023-04-24T13:59:00;7.40;;;1.38;;
47772;SDS011;33534;51.028;13.716;2023-04-24T14:01:26;3.15;;;0.70;;
47772;SDS011;33534;51.028;13.716;2023-04-24T14:03:52;1.58;;;0.90;;
47772;SDS011;33534;51.028;13.716;2023-04-24T14:06:19;1.65;;;1.00;;
47772;SDS011;33534;51.028;13.716;2023-04-24T14:08:45;2.15;;;1.00;;
47772;SDS011;33534;51.028;13.716;2023-04-24T14:11:11;0.85;;;0.63;;
47772;SDS011;33534;51.028;13.716;2023-04-24T14:13:37;3.63;;;1.13;;
47772;SDS011;33534;51.028;13.716;2023-04-24T14:16:03;4.15;;;1.10;;
47772;SDS011;33534;51.028;13.716;2023-04-24T14:18:30;1.33;;;0.70;;
47772;SDS011;33534;51.028;13.716;2023-04-24T14:20:56;2.05;;;0.93;;
47772;SDS011;33534;51.028;13.716;2023-04-24T14:23:22;3.45;;;0.68;;
47772;SDS011;33534;51.028;13.716;2023-04-24T14:25:48;2.08;;;0.63;;
47772;SDS011;33534;51.028;13.716;2023-04-24T14:28:17;2.38;;;0.70;;
47772;SDS011;33534;51.028;13.716;2023-04-24T14:30:43;1.88;;;1.02;;
47772;SDS011;33534;51.028;13.716;2023-04-24T14:33:09;4.75;;;1.33;;
47772;SDS011;33534;51.028;13.716;2023-04-24T14:35:35;2.50;;;1.10;;
47772;SDS011;33534;51.028;13.716;2023-04-24T14:38:02;3.17;;;1.00;;
47772;SDS011;33534;51.028;13.716;2023-04-24T14:40:28;1.80;;;1.00;;
47772;SDS011;33534;51.028;13.716;2023-04-24T14:42:54;1.00;;;0.90;;